Time;durP1;ratioP1;P1;durP2;ratioP2;P2;SDS_P1;SDS_P2;PMS_P1;PMS_P2;Temp;Humidity;BMP_temperature;BMP_pressure;BME280_temperature;BME280_humidity;BME280_pressure;Samples;Min_cycle;Max_cycle;Signal;HPM_P1;HPM_P2
2022/11/23 00:00:12;;;;;;;25.58;18.33;;;7.50;99.90;;;;;;5036520;28;20496;-83
2022/11/23 00:02:38;;;;;;;28.13;19.20;;;7.60;99.90;;;;;;5053678;28;20057;-83
2022/11/23 00:05:04;;;;;;;29.70;20.10;;;7.50;99.90;;;;;;5053837;28;20049;-84
2022/11/23 00:07:29;;;;;;;30.73;19.92;;;7.60;99.90;;;;;;5077858;28;20071;-84
2022/11/23 00:09:57;;;;;;;28.58;19.27;;;7.60;99.90;;;;;;5043090;28;20040;-82
2022/11/23 00:12:22;;;;;;;28.25;19.42;;;8.50;99.90;;;;;;5052902;28;20056;-83
2022/11/23 00:14:48;;;;;;;29.50;19.35;;;7.60;99.90;;;;;;5020392;28;20254;-81
2022/11/23 00:17:13;;;;;;;28.05;19.25;;;7.60;99.90;;;;;;5036215;28;20050;-83
2022/11/23 00:19:40;;;;;;;30.63;19.65;;;7.60;99.90;;;;;;5020021;28;20045;-83
2022/11/23 00:22:06;;;;;;;29.38;19.80;;;7.50;99.90;;;;;;5053328;28;20092;-84
2022/11/23 00:24:32;;;;;;;31.83;19.77;;;7.60;99.90;;;;;;5052713;28;20130;-84
2022/11/23 00:26:57;;;;;;;33.42;19.80;;;7.00;99.90;;;;;;5035962;28;20045;-83
2022/11/23 00:29:23;;;;;;;31.65;20.00;;;7.60;99.90;;;;;;5035878;28;20163;-84
2022/11/23 00:31:49;;;;;;;29.20;19.42;;;7.60;99.90;;;;;;5052729;28;20136;-84
2022/11/23 00:34:15;;;;;;;28.15;19.27;;;7.60;99.90;;;;;;5019634;28;20045;-83
2022/11/23 00:36:40;;;;;;;29.05;19.75;;;7.60;99.90;;;;;;5036422;28;20049;-83
2022/11/23 00:39:06;;;;;;;26.38;19.38;;;7.70;99.90;;;;;;5052874;28;20045;-83
2022/11/23 00:41:32;;;;;;;30.42;19.50;;;7.60;99.90;;;;;;5002741;28;20056;-84
2022/11/23 00:43:57;;;;;;;31.38;19.60;;;7.60;99.90;;;;;;5052350;28;20084;-83
2022/11/23 00:46:24;;;;;;;26.50;19.90;;;7.70;99.90;;;;;;5035615;28;20049;-83
2022/11/23 00:48:51;;;;;;;28.08;19.58;;;7.60;99.90;;;;;;5031168;28;20052;-83
2022/11/23 00:51:19;;;;;;;25.50;18.33;;;7.60;99.90;;;;;;5035792;28;20501;-83
2022/11/23 00:53:45;;;;;;;29.05;18.88;;;7.60;99.90;;;;;;5035636;28;20118;-83
2022/11/23 00:56:10;;;;;;;28.88;19.48;;;7.60;99.90;;;;;;5035945;28;20477;-83
2022/11/23 00:58:39;;;;;;;24.40;17.92;;;7.70;99.90;;;;;;5035670;28;20049;-82
2022/11/23 01:01:07;;;;;;;28.23;19.55;;;7.70;99.90;;;;;;5036047;28;20538;-83
2022/11/23 01:03:33;;;;;;;27.90;19.92;;;7.70;99.90;;;;;;5051621;28;20056;-83
2022/11/23 01:06:04;;;;;;;32.80;19.23;;;7.70;99.90;;;;;;5035420;28;20170;-84
2022/11/23 01:08:30;;;;;;;29.77;20.40;;;7.60;99.90;;;;;;5035282;28;20469;-83
2022/11/23 01:11:00;;;;;;;27.90;19.35;;;7.60;99.90;;;;;;5053060;28;20088;-83
2022/11/23 01:13:26;;;;;;;33.72;20.23;;;7.60;99.90;;;;;;5052262;28;20087;-83
2022/11/23 01:15:52;;;;;;;30.98;19.63;;;7.60;99.90;;;;;;5037196;28;20045;-83
2022/11/23 01:18:23;;;;;;;32.78;20.38;;;7.60;99.90;;;;;;5038593;28;20047;-83
2022/11/23 01:20:49;;;;;;;31.92;19.30;;;7.80;99.90;;;;;;5068347;28;20057;-83
2022/11/23 01:23:14;;;;;;;30.05;19.60;;;7.60;99.90;;;;;;5035762;28;20055;-83
2022/11/23 01:25:40;;;;;;;28.92;19.52;;;7.60;99.90;;;;;;5049349;28;20037;-83
2022/11/23 01:28:07;;;;;;;31.80;20.25;;;8.70;99.90;;;;;;5047141;28;20053;-83
2022/11/23 01:30:33;;;;;;;31.13;19.67;;;8.30;99.90;;;;;;5025659;28;20053;-83
2022/11/23 01:32:59;;;;;;;32.10;19.33;;;7.80;99.90;;;;;;5019847;28;20057;-83
2022/11/23 01:35:24;;;;;;;27.88;20.00;;;7.50;99.90;;;;;;5034785;28;20044;-82
2022/11/23 01:37:50;;;;;;;32.63;19.92;;;7.60;99.90;;;;;;5035766;28;20094;-84
2022/11/23 01:40:16;;;;;;;26.98;18.88;;;7.80;99.90;;;;;;5034334;28;20049;-83
2022/11/23 01:42:50;;;;;;;30.52;18.88;;;7.60;99.90;;;;;;5051415;28;20062;-83
2022/11/23 01:45:31;;;;;;;35.75;19.73;;;7.60;99.90;;;;;;5018865;28;20056;-83
2022/11/23 01:47:57;;;;;;;28.92;19.13;;;7.60;99.90;;;;;;5035090;28;20505;-82
2022/11/23 01:50:22;;;;;;;26.83;19.00;;;7.60;99.90;;;;;;5034580;28;20055;-84
2022/11/23 01:52:48;;;;;;;31.95;20.60;;;7.60;99.90;;;;;;5034847;28;20449;-84
2022/11/23 01:55:14;;;;;;;31.25;18.88;;;7.60;99.90;;;;;;5034603;28;20060;-84
2022/11/23 01:57:40;;;;;;;28.55;18.58;;;7.60;99.90;;;;;;5051166;28;20123;-84
2022/11/23 02:00:07;;;;;;;29.27;18.80;;;7.60;99.90;;;;;;5034577;28;20052;-84
2022/11/23 02:02:32;;;;;;;29.92;18.00;;;7.70;99.90;;;;;;5055780;28;20444;-84
2022/11/23 02:04:58;;;;;;;29.50;18.40;;;7.70;99.90;;;;;;5035740;28;20049;-83
2022/11/23 02:07:24;;;;;;;30.20;18.73;;;7.60;99.90;;;;;;5034055;28;20103;-84
2022/11/23 02:09:49;;;;;;;27.90;17.65;;;7.70;99.90;;;;;;5034780;28;20045;-84
2022/11/23 02:12:15;;;;;;;25.73;16.77;;;7.70;99.90;;;;;;5035267;28;20045;-84
2022/11/23 02:14:41;;;;;;;29.27;16.85;;;7.70;99.90;;;;;;5051019;28;20048;-84
2022/11/23 02:17:06;;;;;;;26.98;17.00;;;7.70;99.90;;;;;;5034562;28;20041;-83
2022/11/23 02:20:02;;;;;;;30.15;17.40;;;7.70;99.90;;;;;;5033770;28;20045;-82
2022/11/23 02:22:44;;;;;;;25.55;17.65;;;7.70;99.90;;;;;;5034189;28;20366;-84
2022/11/23 02:25:33;;;;;;;24.83;16.15;;;7.70;99.90;;;;;;5052221;28;20102;-84
2022/11/23 02:27:59;;;;;;;25.98;16.35;;;7.70;99.90;;;;;;5006618;28;20520;-83
2022/11/23 02:30:25;;;;;;;30.38;16.33;;;7.90;99.90;;;;;;5034348;28;20110;-84
2022/11/23 02:32:50;;;;;;;25.10;16.17;;;7.80;99.90;;;;;;5033877;28;20096;-84
2022/11/23 02:35:16;;;;;;;26.45;16.08;;;7.80;99.90;;;;;;5050963;28;20041;-84
2022/11/23 02:37:41;;;;;;;28.52;15.65;;;7.80;99.90;;;;;;5034016;28;20055;-84
2022/11/23 02:40:40;;;;;;;24.98;16.05;;;7.90;99.90;;;;;;5050762;28;20081;-84
2022/11/23 02:43:05;;;;;;;29.73;14.90;;;7.70;99.90;;;;;;5007374;28;20084;-83
2022/11/23 02:45:54;;;;;;;24.67;14.93;;;7.80;99.90;;;;;;5066766;28;20481;-83
2022/11/23 02:48:21;;;;;;;20.63;14.60;;;7.80;99.90;;;;;;5050577;28;20064;-83
2022/11/23 02:50:47;;;;;;;23.15;15.07;;;7.80;99.90;;;;;;5052760;28;20378;-84
2022/11/23 02:53:12;;;;;;;24.48;15.60;;;8.20;99.90;;;;;;5038235;28;20048;-84
2022/11/23 02:55:38;;;;;;;22.13;13.40;;;7.80;99.90;;;;;;5037914;28;20133;-81
2022/11/23 02:58:04;;;;;;;23.88;14.27;;;7.80;99.90;;;;;;5071389;28;20037;-83
2022/11/23 03:00:30;;;;;;;23.38;15.00;;;7.80;99.90;;;;;;5022026;28;20045;-83
2022/11/23 03:02:55;;;;;;;23.55;13.82;;;7.80;99.90;;;;;;5054584;28;20508;-82
2022/11/23 03:05:21;;;;;;;21.20;13.90;;;7.80;99.90;;;;;;5038334;28;20084;-83
2022/11/23 03:07:48;;;;;;;24.92;14.25;;;7.80;99.90;;;;;;5037488;28;20048;-83
2022/11/23 03:10:13;;;;;;;23.00;14.05;;;7.80;99.90;;;;;;5037115;28;20061;-83
2022/11/23 03:12:39;;;;;;;23.52;14.13;;;7.90;99.90;;;;;;5037273;28;20126;-84
2022/11/23 03:15:05;;;;;;;22.02;14.07;;;7.80;99.90;;;;;;5037565;28;20110;-83
2022/11/23 03:17:31;;;;;;;20.08;13.40;;;7.80;99.90;;;;;;5037244;28;20045;-84
2022/11/23 03:19:57;;;;;;;24.77;14.48;;;7.80;99.90;;;;;;5037331;28;20397;-83
2022/11/23 03:22:23;;;;;;;30.85;14.95;;;7.80;99.90;;;;;;5037785;28;20103;-84
2022/11/23 03:24:48;;;;;;;24.77;14.93;;;7.90;99.90;;;;;;5052337;28;20394;-84
2022/11/23 03:27:14;;;;;;;21.73;14.35;;;7.90;99.90;;;;;;5037240;28;20131;-83
2022/11/23 03:29:40;;;;;;;23.08;14.43;;;7.90;99.90;;;;;;5053701;28;20091;-83
2022/11/23 03:32:05;;;;;;;28.67;15.88;;;9.40;99.90;;;;;;5037905;28;20102;-82
2022/11/23 03:34:31;;;;;;;25.05;15.30;;;7.90;99.90;;;;;;5037746;28;20053;-83
2022/11/23 03:36:56;;;;;;;25.40;15.68;;;7.90;99.90;;;;;;5054507;28;20048;-84
2022/11/23 03:39:22;;;;;;;30.23;15.80;;;8.10;99.90;;;;;;5037279;28;20524;-84
2022/11/23 03:41:48;;;;;;;25.05;14.50;;;7.90;99.90;;;;;;5037069;28;20087;-85
2022/11/23 03:44:13;;;;;;;31.90;17.38;;;7.90;99.90;;;;;;5037134;28;20068;-85
2022/11/23 03:46:40;;;;;;;28.60;16.38;;;7.80;99.90;;;;;;5053295;28;20104;-83
2022/11/23 03:49:06;;;;;;;31.00;15.25;;;7.90;99.90;;;;;;5052826;28;20053;-84
2022/11/23 03:51:32;;;;;;;32.78;16.35;;;7.80;99.90;;;;;;5053763;28;20068;-84
2022/11/23 03:53:57;;;;;;;31.38;15.63;;;7.80;99.90;;;;;;5036888;28;20551;-83
2022/11/23 03:56:23;;;;;;;29.67;14.85;;;7.80;99.90;;;;;;5036533;28;20168;-84
2022/11/23 03:58:49;;;;;;;29.52;15.63;;;7.80;99.90;;;;;;5036904;28;20056;-84
2022/11/23 04:01:14;;;;;;;31.50;15.40;;;7.90;99.90;;;;;;5036813;28;20052;-83
2022/11/23 04:03:40;;;;;;;33.50;17.20;;;7.90;99.90;;;;;;5035913;28;20102;-84
2022/11/23 04:06:06;;;;;;;35.25;16.40;;;7.90;99.90;;;;;;5019465;28;20053;-84
2022/11/23 04:08:31;;;;;;;30.35;16.52;;;7.90;99.90;;;;;;5011348;28;20072;-83
2022/11/23 04:10:57;;;;;;;33.90;16.55;;;7.90;99.90;;;;;;5043175;28;20048;-82
2022/11/23 04:13:23;;;;;;;34.00;17.75;;;7.90;99.90;;;;;;5027456;28;20053;-83
2022/11/23 04:15:49;;;;;;;31.52;16.60;;;7.90;99.90;;;;;;5020926;28;20153;-83
2022/11/23 04:18:14;;;;;;;31.38;16.55;;;8.10;99.90;;;;;;5029899;28;20090;-84
2022/11/23 04:20:40;;;;;;;39.35;18.25;;;7.80;99.90;;;;;;5025001;28;20497;-84
2022/11/23 04:23:06;;;;;;;34.20;16.05;;;7.80;99.90;;;;;;5025371;28;20079;-83
2022/11/23 04:25:31;;;;;;;34.65;16.88;;;7.90;99.90;;;;;;5011162;28;20048;-83
2022/11/23 04:27:57;;;;;;;39.05;16.95;;;7.90;99.90;;;;;;5024560;28;20124;-84
2022/11/23 04:30:23;;;;;;;34.30;16.80;;;7.90;99.90;;;;;;5025861;28;20060;-84
2022/11/23 04:32:48;;;;;;;34.13;16.50;;;7.80;99.90;;;;;;5023688;28;20492;-84
2022/11/23 04:35:14;;;;;;;35.47;18.73;;;8.20;99.90;;;;;;5040863;28;20046;-84
2022/11/23 04:37:40;;;;;;;42.97;19.17;;;7.90;99.90;;;;;;5025666;28;20041;-85
2022/11/23 04:40:06;;;;;;;39.42;18.23;;;7.90;99.90;;;;;;5025646;28;20045;-83
2022/11/23 04:42:31;;;;;;;35.58;17.92;;;7.90;99.90;;;;;;5012819;28;20111;-85
2022/11/23 04:44:57;;;;;;;41.08;17.48;;;7.90;99.90;;;;;;5040779;28;20045;-83
2022/11/23 04:47:23;;;;;;;38.42;18.88;;;8.00;99.90;;;;;;5060186;28;20049;-83
2022/11/23 04:49:49;;;;;;;40.28;18.20;;;8.70;99.90;;;;;;5051171;28;20084;-83
2022/11/23 04:52:15;;;;;;;35.67;18.08;;;7.90;99.90;;;;;;5052250;28;20059;-83
2022/11/23 04:54:40;;;;;;;39.63;19.85;;;7.90;99.90;;;;;;5047075;28;20504;-84
2022/11/23 04:57:07;;;;;;;35.50;18.30;;;7.90;99.90;;;;;;5039921;28;20053;-83
2022/11/23 04:59:33;;;;;;;40.22;19.23;;;7.90;99.90;;;;;;5055731;28;20078;-84
2022/11/23 05:02:00;;;;;;;38.38;18.73;;;7.90;99.90;;;;;;5039040;28;20057;-83
2022/11/23 05:04:25;;;;;;;37.38;18.33;;;7.80;99.90;;;;;;5039133;28;20040;-85
2022/11/23 05:06:51;;;;;;;39.25;19.33;;;7.90;99.90;;;;;;5055431;28;20059;-84
2022/11/23 05:09:17;;;;;;;39.17;18.85;;;7.80;99.90;;;;;;5039400;28;20044;-82
2022/11/23 05:11:42;;;;;;;38.22;19.30;;;7.90;99.90;;;;;;5055432;28;20041;-82
2022/11/23 05:14:08;;;;;;;35.55;20.40;;;8.00;99.90;;;;;;5037843;28;20473;-84
2022/11/23 05:16:34;;;;;;;38.88;18.92;;;7.90;99.90;;;;;;5038804;28;20393;-83
2022/11/23 05:19:00;;;;;;;40.80;19.58;;;8.00;99.90;;;;;;5037855;28;20040;-83
2022/11/23 05:21:25;;;;;;;44.80;20.77;;;7.90;99.90;;;;;;5038614;28;20135;-83
2022/11/23 05:23:51;;;;;;;37.90;20.50;;;8.00;99.90;;;;;;5038251;28;20091;-83
2022/11/23 05:26:16;;;;;;;38.10;19.30;;;8.00;99.90;;;;;;5055155;28;20045;-83
2022/11/23 05:28:42;;;;;;;47.45;20.67;;;7.90;99.90;;;;;;5054583;28;20048;-84
2022/11/23 05:31:08;;;;;;;42.25;18.90;;;7.90;99.90;;;;;;5037883;28;20043;-83
2022/11/23 05:33:34;;;;;;;39.08;20.17;;;9.30;99.90;;;;;;5038229;28;20131;-83
2022/11/23 05:35:59;;;;;;;42.35;19.00;;;7.90;99.90;;;;;;5037726;28;20053;-84
2022/11/23 05:38:25;;;;;;;41.22;19.90;;;8.50;99.90;;;;;;5038343;28;20048;-84
2022/11/23 05:40:51;;;;;;;41.05;20.33;;;7.90;99.90;;;;;;5038034;28;20365;-84
2022/11/23 05:43:17;;;;;;;41.08;18.48;;;7.90;99.90;;;;;;5038178;28;20045;-84
2022/11/23 05:45:42;;;;;;;39.80;19.77;;;7.90;99.90;;;;;;5038185;28;20049;-83
2022/11/23 05:48:08;;;;;;;40.05;19.65;;;8.00;99.90;;;;;;5037236;28;20066;-84
2022/11/23 05:50:34;;;;;;;34.83;18.95;;;7.90;99.90;;;;;;5038149;28;20048;-83
2022/11/23 05:53:00;;;;;;;39.10;18.98;;;7.90;99.90;;;;;;5037705;28;20048;-83
2022/11/23 05:55:26;;;;;;;33.95;17.52;;;7.90;99.90;;;;;;5054830;28;20424;-83
2022/11/23 05:57:51;;;;;;;39.20;17.88;;;7.90;99.90;;;;;;5037398;28;20471;-84
2022/11/23 06:00:17;;;;;;;35.58;17.88;;;7.90;99.90;;;;;;5037669;28;20044;-83
2022/11/23 06:02:43;;;;;;;29.20;16.42;;;7.90;99.90;;;;;;5021730;28;20144;-84
2022/11/23 06:05:10;;;;;;;31.52;17.30;;;8.00;99.90;;;;;;5037416;28;20045;-83
2022/11/23 06:07:36;;;;;;;38.08;18.67;;;7.80;99.90;;;;;;5021720;28;20105;-83
2022/11/23 06:10:02;;;;;;;31.73;17.75;;;7.80;99.90;;;;;;5037631;28;20053;-84
2022/11/23 06:12:28;;;;;;;34.40;15.88;;;7.80;99.90;;;;;;5071321;28;20105;-84
2022/11/23 06:14:54;;;;;;;33.28;17.15;;;7.70;99.90;;;;;;5038888;28;20044;-84
2022/11/23 06:17:19;;;;;;;28.80;16.10;;;7.70;99.90;;;;;;5039512;28;20083;-83
2022/11/23 06:19:48;;;;;;;31.67;16.20;;;7.80;99.90;;;;;;5043039;28;20078;-85
2022/11/23 06:22:15;;;;;;;33.55;16.65;;;7.60;99.90;;;;;;5065446;28;20048;-81
2022/11/23 06:24:41;;;;;;;33.55;17.02;;;7.60;99.90;;;;;;5037868;28;20040;-83
2022/11/23 06:27:06;;;;;;;31.15;15.70;;;7.70;99.90;;;;;;5037309;28;20553;-83
2022/11/23 06:29:32;;;;;;;33.10;16.58;;;7.60;99.90;;;;;;5021334;28;20135;-83
2022/11/23 06:31:58;;;;;;;33.70;15.70;;;7.60;99.90;;;;;;5039326;28;20052;-84
2022/11/23 06:34:23;;;;;;;27.45;15.57;;;7.60;99.90;;;;;;5041674;28;20048;-83
2022/11/23 06:36:49;;;;;;;31.58;14.85;;;7.60;99.90;;;;;;5037641;28;20056;-84
2022/11/23 06:39:15;;;;;;;32.17;14.95;;;7.80;99.90;;;;;;5054149;28;20053;-84
2022/11/23 06:41:40;;;;;;;24.75;13.73;;;8.00;99.90;;;;;;5054998;28;20051;-83
2022/11/23 06:44:06;;;;;;;29.40;15.00;;;7.60;99.90;;;;;;5021606;28;20044;-83
2022/11/23 06:46:32;;;;;;;24.88;14.82;;;7.50;99.90;;;;;;5037299;28;20129;-83
2022/11/23 06:48:57;;;;;;;32.10;14.95;;;7.50;99.90;;;;;;5036857;28;20067;-84
2022/11/23 06:51:23;;;;;;;26.80;13.75;;;7.50;99.90;;;;;;5054292;28;20049;-84
2022/11/23 06:53:49;;;;;;;31.08;13.07;;;7.50;99.90;;;;;;5037666;28;20501;-83
2022/11/23 06:56:14;;;;;;;21.42;12.38;;;7.50;99.90;;;;;;5037150;28;20396;-84
2022/11/23 06:58:40;;;;;;;28.70;12.00;;;7.60;99.90;;;;;;5054555;28;20052;-81
2022/11/23 07:01:07;;;;;;;22.50;12.07;;;7.60;99.90;;;;;;5037918;28;20048;-84
2022/11/23 07:03:33;;;;;;;20.90;10.43;;;7.60;99.90;;;;;;5037940;28;20067;-83
2022/11/23 07:05:59;;;;;;;24.08;11.80;;;7.60;99.90;;;;;;5054454;28;20052;-84
2022/11/23 07:08:24;;;;;;;18.92;10.05;;;9.10;99.90;;;;;;5038713;28;20044;-85
2022/11/23 07:10:50;;;;;;;22.15;10.88;;;7.70;99.90;;;;;;5038228;28;20049;-84
2022/11/23 07:13:16;;;;;;;22.67;10.45;;;7.50;99.90;;;;;;5054974;28;20044;-84
2022/11/23 07:15:41;;;;;;;21.15;9.63;;;7.50;99.90;;;;;;5038175;28;20489;-83
2022/11/23 07:18:08;;;;;;;20.55;10.10;;;7.50;99.90;;;;;;5072262;28;20090;-83
2022/11/23 07:20:34;;;;;;;20.88;9.95;;;7.50;99.90;;;;;;5021198;28;20060;-83
2022/11/23 07:23:04;;;;;;;21.98;9.70;;;7.50;99.90;;;;;;5021432;28;20052;-81
2022/11/23 07:25:30;;;;;;;23.65;10.00;;;7.50;99.90;;;;;;5021865;28;20056;-83
2022/11/23 07:27:56;;;;;;;17.65;9.05;;;7.50;99.90;;;;;;5037517;28;20476;-83
2022/11/23 07:30:23;;;;;;;23.55;9.02;;;7.70;99.90;;;;;;5037802;28;20044;-83
2022/11/23 07:32:49;;;;;;;23.63;11.15;;;7.50;99.90;;;;;;5054364;28;20052;-83
2022/11/23 07:35:14;;;;;;;14.43;8.98;;;7.50;99.90;;;;;;5053758;28;20452;-84
2022/11/23 07:37:40;;;;;;;18.60;8.20;;;7.50;99.90;;;;;;5039584;28;20059;-84
2022/11/23 07:40:06;;;;;;;18.67;8.45;;;7.50;99.90;;;;;;5058028;28;20040;-83
2022/11/23 07:42:32;;;;;;;16.42;8.75;;;7.50;99.90;;;;;;5058131;28;20040;-83
2022/11/23 07:44:58;;;;;;;21.50;8.73;;;7.50;99.90;;;;;;5024906;28;20048;-83
2022/11/23 07:47:23;;;;;;;23.25;8.07;;;7.50;99.90;;;;;;5056596;28;20056;-83
2022/11/23 07:49:49;;;;;;;15.75;7.30;;;8.30;99.90;;;;;;5007778;28;20067;-84
2022/11/23 07:52:15;;;;;;;16.75;7.65;;;8.70;99.90;;;;;;5039350;28;20041;-83
2022/11/23 07:54:40;;;;;;;15.25;7.47;;;7.50;99.90;;;;;;5073253;28;20084;-84
2022/11/23 07:57:06;;;;;;;16.10;7.65;;;7.70;99.90;;;;;;5040220;28;20044;-83
2022/11/23 07:59:32;;;;;;;17.50;7.78;;;7.60;99.90;;;;;;5056718;28;20048;-84
2022/11/23 08:01:57;;;;;;;15.35;7.50;;;8.20;99.90;;;;;;5057336;28;20095;-84
2022/11/23 08:04:23;;;;;;;20.10;7.50;;;7.60;99.90;;;;;;5040341;28;20045;-84
2022/11/23 08:06:49;;;;;;;17.73;8.00;;;7.60;99.90;;;;;;5073799;28;20416;-84
2022/11/23 08:09:14;;;;;;;17.45;7.38;;;7.70;99.90;;;;;;5056952;28;20544;-84
2022/11/23 08:11:40;;;;;;;16.77;7.90;;;7.60;99.90;;;;;;5056707;28;20040;-84
2022/11/23 08:14:06;;;;;;;16.58;7.53;;;7.70;99.90;;;;;;5056503;28;20056;-83
2022/11/23 08:16:31;;;;;;;16.52;7.00;;;7.70;99.90;;;;;;5057166;28;20385;-83
2022/11/23 08:18:58;;;;;;;16.33;7.30;;;7.70;99.90;;;;;;5041185;28;20056;-82
2022/11/23 08:21:24;;;;;;;15.07;7.43;;;7.30;99.90;;;;;;5059642;28;20041;-84
2022/11/23 08:23:50;;;;;;;18.63;7.60;;;7.70;99.90;;;;;;5055692;28;20048;-84
2022/11/23 08:26:15;;;;;;;16.45;7.15;;;7.70;99.90;;;;;;5068570;28;20048;-82
2022/11/23 08:28:41;;;;;;;14.13;7.00;;;7.80;99.90;;;;;;5052870;28;20049;-83
2022/11/23 08:31:10;;;;;;;13.13;6.68;;;7.80;99.90;;;;;;5086336;28;20075;-84
2022/11/23 08:33:36;;;;;;;22.75;7.05;;;7.90;99.90;;;;;;5050870;28;20098;-81
2022/11/23 08:36:04;;;;;;;16.85;7.15;;;7.80;99.90;;;;;;5057871;28;20079;-82
2022/11/23 08:38:29;;;;;;;11.77;7.60;;;7.80;99.90;;;;;;5039246;28;20350;-82
2022/11/23 08:40:59;;;;;;;15.30;7.18;;;7.90;99.90;;;;;;5022764;28;20405;-82
2022/11/23 08:43:25;;;;;;;10.57;6.28;;;7.90;99.90;;;;;;5032140;28;20037;-83
2022/11/23 08:45:55;;;;;;;12.07;6.47;;;8.00;99.90;;;;;;5030228;28;20047;-83
2022/11/23 08:48:21;;;;;;;15.65;7.07;;;8.00;99.90;;;;;;5037590;28;20053;-83
2022/11/23 08:50:47;;;;;;;14.15;6.90;;;8.00;99.90;;;;;;5021015;28;20067;-83
2022/11/23 08:53:12;;;;;;;13.07;6.45;;;8.10;99.90;;;;;;5027568;28;20052;-83
2022/11/23 08:55:38;;;;;;;13.15;6.70;;;8.10;99.90;;;;;;5033674;28;20135;-83
2022/11/23 08:58:03;;;;;;;11.48;8.25;;;8.20;99.90;;;;;;5027611;28;20044;-82
2022/11/23 09:00:29;;;;;;;14.98;7.20;;;8.20;99.90;;;;;;5031446;28;20041;-82
2022/11/23 09:02:58;;;;;;;14.05;6.95;;;8.20;99.90;;;;;;5020444;28;20439;-83
2022/11/23 09:05:25;;;;;;;13.85;7.38;;;8.20;99.90;;;;;;5051423;28;20040;-84
2022/11/23 09:07:50;;;;;;;18.42;6.50;;;8.20;99.90;;;;;;5047276;28;20051;-84
2022/11/23 09:10:16;;;;;;;16.77;7.05;;;8.20;99.90;;;;;;5048610;28;20396;-83
2022/11/23 09:12:42;;;;;;;15.50;6.57;;;8.30;99.90;;;;;;5034719;28;20086;-83
2022/11/23 09:15:08;;;;;;;18.98;6.70;;;8.30;99.90;;;;;;5031110;28;20466;-84
2022/11/23 09:17:34;;;;;;;13.60;6.70;;;8.40;99.90;;;;;;5048443;28;20094;-81
2022/11/23 09:19:59;;;;;;;19.63;7.10;;;8.40;99.90;;;;;;5035689;28;20092;-83
2022/11/23 09:22:25;;;;;;;19.70;6.72;;;8.40;99.90;;;;;;5035442;28;20071;-83
2022/11/23 09:24:51;;;;;;;11.95;6.20;;;8.50;99.90;;;;;;5035846;28;20045;-80
2022/11/23 09:27:17;;;;;;;15.10;6.32;;;8.50;99.90;;;;;;5035334;28;20044;-83
2022/11/23 09:29:43;;;;;;;14.07;6.50;;;8.50;99.90;;;;;;5035506;28;20079;-82
2022/11/23 09:32:10;;;;;;;15.20;6.15;;;8.70;99.90;;;;;;5047369;28;20084;-82
2022/11/23 09:34:36;;;;;;;16.08;5.90;;;8.40;99.90;;;;;;5018707;28;20051;-82
2022/11/23 09:37:01;;;;;;;15.90;6.45;;;8.40;99.90;;;;;;5045744;28;20053;-83
2022/11/23 09:39:27;;;;;;;16.88;6.10;;;8.40;99.90;;;;;;5032067;28;20411;-82
2022/11/23 09:42:24;;;;;;;11.82;5.53;;;8.40;99.90;;;;;;5038825;28;20048;-84
2022/11/23 09:44:56;;;;;;;13.48;5.95;;;8.50;99.90;;;;;;5040863;28;20044;-82
2022/11/23 09:47:42;;;;;;;17.58;5.85;;;8.50;99.90;;;;;;5025889;28;20048;-84
2022/11/23 09:50:10;;;;;;;14.48;6.35;;;8.50;99.90;;;;;;5027507;28;20045;-84
2022/11/23 09:52:38;;;;;;;15.55;5.68;;;8.60;99.90;;;;;;5036740;28;20531;-81
2022/11/23 09:55:30;;;;;;;12.20;5.25;;;8.60;99.90;;;;;;5025696;28;20060;-82
2022/11/23 09:57:59;;;;;;;16.42;5.95;;;8.60;99.90;;;;;;5043536;28;20063;-82
2022/11/23 10:00:25;;;;;;;14.93;5.30;;;8.70;99.90;;;;;;5024243;28;20052;-82
2022/11/23 10:02:50;;;;;;;17.52;4.93;;;9.00;99.90;;;;;;5026189;28;20475;-82
2022/11/23 10:05:23;;;;;;;15.60;4.93;;;8.70;99.90;;;;;;5026799;28;20456;-82
2022/11/23 10:07:54;;;;;;;13.30;5.25;;;8.70;99.90;;;;;;5027906;28;20049;-81
2022/11/23 10:10:29;;;;;;;14.00;4.90;;;8.70;99.90;;;;;;5054915;28;20110;-82
2022/11/23 10:13:07;;;;;;;20.33;5.22;;;8.80;99.90;;;;;;5044922;28;20488;-81
2022/11/23 10:15:46;;;;;;;15.35;5.45;;;8.80;99.90;;;;;;5042552;28;20488;-82
2022/11/23 10:18:29;;;;;;;18.98;4.63;;;8.80;99.90;;;;;;5033192;28;20055;-82
2022/11/23 10:21:16;;;;;;;17.58;4.28;;;8.80;99.90;;;;;;5072718;28;20496;-83
2022/11/23 10:23:54;;;;;;;16.67;4.63;;;8.80;99.90;;;;;;5041334;28;20055;-83
2022/11/23 10:26:32;;;;;;;17.08;4.97;;;8.80;99.90;;;;;;5055038;28;20047;-83
2022/11/23 10:29:05;;;;;;;16.40;5.03;;;8.80;99.90;;;;;;5022078;28;20060;-83
2022/11/23 10:31:31;;;;;;;12.38;4.25;;;8.90;99.90;;;;;;5054688;28;20056;-84
2022/11/23 10:34:13;;;;;;;12.23;4.07;;;8.80;99.90;;;;;;5020234;28;20048;-84
2022/11/23 10:36:39;;;;;;;17.65;4.30;;;8.90;99.90;;;;;;5037793;28;20497;-83
2022/11/23 10:39:23;;;;;;;14.43;4.18;;;9.00;99.90;;;;;;5037128;28;20048;-83
2022/11/23 10:41:53;;;;;;;14.07;3.92;;;9.00;99.90;;;;;;5018730;28;20133;-83
2022/11/23 10:44:36;;;;;;;13.73;3.75;;;9.00;99.90;;;;;;5018072;28;20504;-83
2022/11/23 10:47:02;;;;;;;10.93;3.88;;;8.90;99.90;;;;;;5034595;28;20072;-82
2022/11/23 10:49:32;;;;;;;8.65;3.55;;;9.00;99.90;;;;;;5039510;28;20052;-83
2022/11/23 10:51:59;;;;;;;13.70;3.75;;;9.00;99.90;;;;;;5026751;28;20059;-82
2022/11/23 10:54:26;;;;;;;8.93;3.47;;;9.00;99.90;;;;;;5028566;28;20084;-84
2022/11/23 10:56:52;;;;;;;12.82;3.38;;;9.00;99.90;;;;;;5027438;28;20053;-81
2022/11/23 10:59:28;;;;;;;8.95;3.15;;;9.00;99.90;;;;;;5041901;28;20044;-82
2022/11/23 11:02:13;;;;;;;15.27;4.55;;;8.80;99.90;;;;;;5043387;28;20493;-83
2022/11/23 11:04:40;;;;;;;11.55;3.42;;;8.90;99.90;;;;;;5019219;28;20075;-82
2022/11/23 11:07:27;;;;;;;13.90;3.58;;;8.90;99.90;;;;;;5033648;28;20067;-83
2022/11/23 11:09:59;;;;;;;12.13;3.25;;;9.00;99.90;;;;;;5034040;28;20048;-83
2022/11/23 11:12:26;;;;;;;15.85;3.42;;;9.10;99.90;;;;;;5019771;28;20107;-85
2022/11/23 11:14:56;;;;;;;12.38;3.42;;;9.10;99.90;;;;;;5037495;28;20102;-84
2022/11/23 11:17:27;;;;;;;8.38;2.78;;;9.10;99.90;;;;;;5037700;28;20057;-83
2022/11/23 11:19:53;;;;;;;14.65;3.95;;;9.10;99.90;;;;;;5020759;28;20538;-85
2022/11/23 11:22:34;;;;;;;14.18;2.95;;;9.20;99.90;;;;;;5037411;28;20397;-84
2022/11/23 11:25:04;;;;;;;11.38;3.42;;;9.30;99.90;;;;;;5037752;28;20160;-84
2022/11/23 11:27:30;;;;;;;9.95;2.83;;;9.40;99.90;;;;;;5021640;28;20458;-84
2022/11/23 11:30:06;;;;;;;11.77;3.22;;;9.50;99.90;;;;;;5037571;28;20064;-82
2022/11/23 11:32:43;;;;;;;11.27;3.00;;;9.60;99.90;;;;;;5021548;28;20128;-83
2022/11/23 11:35:25;;;;;;;15.43;3.25;;;9.80;99.90;;;;;;5037858;28;20506;-83
2022/11/23 11:37:51;;;;;;;12.43;3.25;;;9.80;99.90;;;;;;5031179;28;20057;-81
2022/11/23 11:40:36;;;;;;;11.85;2.95;;;9.80;99.90;;;;;;5045627;28;20382;-83
2022/11/23 11:43:39;;;;;;;11.88;2.78;;;9.80;99.90;;;;;;5031614;28;20067;-82
2022/11/23 11:46:27;;;;;;;14.38;3.30;;;9.80;99.90;;;;;;5035907;28;20180;-82
2022/11/23 11:49:17;;;;;;;10.90;2.85;;;9.80;99.90;;;;;;5049324;28;20111;-83
2022/11/23 11:51:47;;;;;;;12.80;3.42;;;9.90;99.90;;;;;;5046098;28;20048;-82
2022/11/23 11:54:38;;;;;;;14.02;2.80;;;9.90;99.90;;;;;;5050318;28;20393;-82
2022/11/23 11:57:23;;;;;;;13.90;2.60;;;9.90;99.90;;;;;;5049004;28;20043;-83
2022/11/23 11:59:52;;;;;;;9.27;2.53;;;10.00;99.90;;;;;;5052781;28;20061;-82
2022/11/23 12:02:25;;;;;;;13.93;2.60;;;10.30;99.90;;;;;;5048415;28;20082;-83
2022/11/23 12:05:11;;;;;;;9.48;2.97;;;10.10;99.90;;;;;;5073288;28;20092;-83
2022/11/23 12:07:48;;;;;;;11.63;2.75;;;10.10;99.90;;;;;;5057740;28;20071;-86
2022/11/23 12:10:27;;;;;;;7.43;2.42;;;10.10;99.90;;;;;;5049738;28;20055;-84
2022/11/23 12:12:55;;;;;;;11.30;2.80;;;10.20;99.90;;;;;;5065986;28;20052;-82
2022/11/23 12:15:25;;;;;;;10.63;2.38;;;10.20;99.90;;;;;;5071250;28;20051;-83
2022/11/23 12:18:09;;;;;;;9.40;2.40;;;10.30;99.90;;;;;;5051769;28;20063;-84
2022/11/23 12:21:13;;;;;;;9.40;2.15;;;10.30;99.90;;;;;;5037792;28;20114;-85
2022/11/23 12:24:16;;;;;;;9.18;2.15;;;10.30;99.90;;;;;;5031759;28;20622;-85
2022/11/23 12:26:49;;;;;;;7.47;2.35;;;10.30;99.90;;;;;;5056363;28;20404;-85
2022/11/23 12:29:36;;;;;;;10.77;2.13;;;10.40;99.90;;;;;;5056024;28;20416;-85
2022/11/23 12:32:23;;;;;;;8.07;2.17;;;10.40;99.90;;;;;;5055884;28;20404;-83
2022/11/23 12:34:57;;;;;;;12.57;2.95;;;10.40;99.90;;;;;;5034818;28;20040;-85
2022/11/23 12:37:38;;;;;;;9.73;2.00;;;10.40;99.90;;;;;;5028457;28;20071;-85
2022/11/23 12:40:18;;;;;;;9.02;2.47;;;10.40;99.90;;;;;;5047531;28;20049;-83
2022/11/23 12:42:51;;;;;;;8.43;2.28;;;10.50;99.90;;;;;;5055466;28;20048;-85
2022/11/23 12:45:43;;;;;;;8.15;2.03;;;10.40;99.90;;;;;;5041997;28;20059;-83
2022/11/23 12:48:27;;;;;;;14.02;3.55;;;10.30;99.90;;;;;;5039563;28;20525;-84